createdAt,value
2019-02-12T00:00:03.870Z,6.1
2019-02-12T00:01:03.357Z,3.6
2019-02-12T00:02:03.688Z,6.1
2019-02-12T00:03:03.284Z,6.1
2019-02-12T00:04:03.543Z,6.1
2019-02-12T00:05:03.297Z,7.2
2019-02-12T00:06:03.654Z,6.1
2019-02-12T00:07:03.112Z,6.1
2019-02-12T00:08:03.661Z,6.1
2019-02-12T00:09:03.295Z,6.1
2019-02-12T00:10:03.553Z,6.1
2019-02-12T00:11:02.954Z,6.1
2019-02-12T00:12:02.956Z,6.1
2019-02-12T00:13:03.103Z,8.6
2019-02-12T00:14:03.654Z,11.2
2019-02-12T00:15:03.311Z,9.7
2019-02-12T00:16:03.292Z,9.7
2019-02-12T00:17:03.923Z,9.7
2019-02-12T00:18:03.149Z,7.2
2019-02-12T00:19:03.863Z,7.2
2019-02-12T00:20:03.448Z,7.2
2019-02-12T00:21:09.785Z,9.7
2019-02-12T00:22:03.097Z,8.6
2019-02-12T00:23:03.297Z,7.2
2019-02-12T00:24:03.765Z,9.7
2019-02-12T00:25:03.363Z,9.7
2019-02-12T00:26:03.669Z,12.2
2019-02-12T00:27:03.320Z,12.2
2019-02-12T00:28:03.938Z,12.2
2019-02-12T00:29:03.292Z,11.2
2019-02-12T00:30:03.827Z,9.7
2019-02-12T00:31:03.119Z,9.7
2019-02-12T00:32:03.091Z,9.7
2019-02-12T00:33:03.361Z,9.7
2019-02-12T00:34:03.856Z,7.2
2019-02-12T00:35:03.452Z,7.2
2019-02-12T00:36:03.591Z,7.2
2019-02-12T00:37:03.043Z,7.2
2019-02-12T00:38:03.426Z,7.2
2019-02-12T00:39:03.763Z,7.2
2019-02-12T00:40:03.906Z,8.6
2019-02-12T00:41:02.713Z,6.1
2019-02-12T00:42:03.449Z,8.6
2019-02-12T00:43:03.854Z,8.6
2019-02-12T00:44:03.281Z,8.6
2019-02-12T00:45:04.070Z,7.2
2019-02-12T00:46:03.226Z,7.2
2019-02-12T00:47:03.023Z,7.2
2019-02-12T00:48:03.549Z,6.1
2019-02-12T00:49:03.009Z,7.2
2019-02-12T00:50:03.146Z,6.1
2019-02-12T00:51:04.056Z,7.2
2019-02-12T00:52:03.432Z,6.1
2019-02-12T00:53:02.989Z,8.6
2019-02-12T00:54:03.329Z,8.6
2019-02-12T00:55:03.108Z,8.6
2019-02-12T00:56:03.202Z,9.7
2019-02-12T00:57:03.096Z,9.7
2019-02-12T00:58:03.321Z,12.2
2019-02-12T00:59:03.758Z,13.3
2019-02-12T01:00:05.074Z,9.7
2019-02-12T01:01:03.576Z,8.6
2019-02-12T01:02:02.988Z,8.6
2019-02-12T01:03:03.422Z,8.6
2019-02-12T01:04:03.016Z,8.6
2019-02-12T01:05:04.733Z,8.6
2019-02-12T01:06:03.811Z,8.6
2019-02-12T01:07:03.336Z,8.6
2019-02-12T01:08:03.740Z,8.6
2019-02-12T01:09:03.168Z,9.7
2019-02-12T01:10:03.656Z,11.2
2019-02-12T01:11:03.178Z,11.2
2019-02-12T01:12:04.234Z,11.2
2019-02-12T01:13:03.096Z,12.2
2019-02-12T01:14:03.445Z,9.7
2019-02-12T01:15:03.115Z,12.2
2019-02-12T01:16:03.838Z,13.3
2019-02-12T01:17:02.992Z,11.2
2019-02-12T01:18:03.760Z,11.2
2019-02-12T01:19:02.948Z,11.2
2019-02-12T01:20:03.602Z,11.2
2019-02-12T01:21:03.932Z,12.2
2019-02-12T01:22:03.753Z,13.3
2019-02-12T01:23:03.299Z,11.2
2019-02-12T01:24:03.809Z,12.2
2019-02-12T01:25:03.352Z,12.2
2019-02-12T01:26:03.566Z,14.8
2019-02-12T01:27:02.930Z,12.2
2019-02-12T01:28:03.873Z,13.3
2019-02-12T01:29:03.020Z,12.2
2019-02-12T01:30:03.597Z,15.8
2019-02-12T01:31:03.476Z,13.3
2019-02-12T01:32:03.820Z,17.3
2019-02-12T01:33:03.181Z,15.8
2019-02-12T01:34:03.764Z,14.8
2019-02-12T01:35:03.300Z,13.3
2019-02-12T01:36:03.821Z,12.2
2019-02-12T01:37:03.269Z,11.2
2019-02-12T01:38:03.767Z,12.2
2019-02-12T01:39:03.134Z,12.2
2019-02-12T01:40:03.237Z,13.3
2019-02-12T01:41:03.667Z,11.2
2019-02-12T01:42:03.417Z,18.4
2019-02-12T01:43:02.992Z,17.3
2019-02-12T01:44:03.781Z,13.3
2019-02-12T01:45:03.264Z,14.8
2019-02-12T01:46:03.179Z,12.2
2019-02-12T01:47:03.599Z,11.2
2019-02-12T01:48:03.407Z,14.8
2019-02-12T01:49:03.379Z,14.8
2019-02-12T01:50:03.385Z,13.3
2019-02-12T01:51:02.996Z,11.2
2019-02-12T01:52:03.696Z,12.2
2019-02-12T01:53:03.075Z,12.2
2019-02-12T01:54:03.445Z,9.7
2019-02-12T01:55:03.869Z,11.2
2019-02-12T01:56:03.296Z,12.2
2019-02-12T01:57:04.158Z,12.2
2019-02-12T01:58:03.250Z,12.2
2019-02-12T01:59:03.625Z,14.8
2019-02-12T02:00:03.511Z,12.2
2019-02-12T02:01:03.570Z,12.2
2019-02-12T02:02:03.429Z,13.3
2019-02-12T02:03:03.520Z,9.7
2019-02-12T02:04:03.843Z,9.7
2019-02-12T02:05:03.420Z,11.2
2019-02-12T02:06:03.004Z,9.7
2019-02-12T02:07:03.341Z,9.7
2019-02-12T02:08:03.092Z,9.7
2019-02-12T02:09:03.345Z,11.2
2019-02-12T02:10:04.000Z,9.7
2019-02-12T02:11:03.498Z,9.7
2019-02-12T02:12:02.929Z,9.7
2019-02-12T02:13:03.441Z,11.2
2019-02-12T02:14:03.651Z,11.2
2019-02-12T02:15:03.393Z,7.2
2019-02-12T02:16:03.848Z,9.7
2019-02-12T02:17:03.120Z,9.7
2019-02-12T02:18:03.890Z,6.1
2019-02-12T02:19:03.209Z,7.2
2019-02-12T02:20:03.728Z,7.2
2019-02-12T02:21:03.187Z,7.2
2019-02-12T02:22:04.068Z,7.2
2019-02-12T02:23:03.713Z,8.6
2019-02-12T02:24:03.306Z,8.6
2019-02-12T02:25:03.985Z,7.2
2019-02-12T02:26:03.299Z,8.6
2019-02-12T02:27:02.862Z,8.6
2019-02-12T02:28:03.182Z,11.2
2019-02-12T02:29:03.566Z,9.7
2019-02-12T02:30:03.087Z,7.2
2019-02-12T02:31:03.818Z,8.6
2019-02-12T02:32:03.329Z,8.6
2019-02-12T02:33:03.874Z,8.6
2019-02-12T02:34:03.338Z,12.2
2019-02-12T02:35:03.603Z,9.7
2019-02-12T02:36:02.956Z,8.6
2019-02-12T02:37:03.604Z,11.2
2019-02-12T02:38:03.154Z,11.2
2019-02-12T02:39:03.644Z,11.2
2019-02-12T02:40:03.285Z,11.2
2019-02-12T02:41:03.703Z,11.2
2019-02-12T02:42:03.052Z,8.6
2019-02-12T02:43:03.523Z,8.6
2019-02-12T02:44:03.002Z,11.2
2019-02-12T02:45:03.905Z,12.2
2019-02-12T02:46:03.071Z,12.2
2019-02-12T02:47:03.658Z,9.7
2019-02-12T02:48:03.240Z,11.2
2019-02-12T02:49:03.634Z,11.2
2019-02-12T02:50:03.935Z,9.7
2019-02-12T02:51:03.951Z,9.7
2019-02-12T02:52:03.065Z,9.7
2019-02-12T02:53:03.554Z,9.7
2019-02-12T02:54:02.912Z,11.2
2019-02-12T02:55:03.717Z,8.6
2019-02-12T02:56:03.996Z,8.6
2019-02-12T02:57:03.596Z,8.6
2019-02-12T02:58:03.238Z,9.7
2019-02-12T02:59:03.802Z,15.8
2019-02-12T03:00:03.050Z,8.6
2019-02-12T03:01:03.478Z,11.2
2019-02-12T03:02:03.107Z,11.2
2019-02-12T03:03:03.488Z,11.2
2019-02-12T03:04:03.099Z,11.2
2019-02-12T03:05:03.785Z,11.2
2019-02-12T03:06:03.605Z,11.2
2019-02-12T03:07:03.645Z,11.2
2019-02-12T03:08:03.500Z,11.2
2019-02-12T03:09:03.090Z,12.2
2019-02-12T03:10:03.716Z,13.3
2019-02-12T03:11:03.311Z,13.3
2019-02-12T03:12:03.611Z,14.8
2019-02-12T03:13:03.846Z,13.3
2019-02-12T03:14:03.324Z,12.2
2019-02-12T03:15:03.081Z,15.8
2019-02-12T03:16:03.321Z,12.2
2019-02-12T03:17:02.981Z,9.7
2019-02-12T03:18:03.142Z,12.2
2019-02-12T03:19:02.802Z,12.2
2019-02-12T03:20:03.348Z,8.6
2019-02-12T03:21:03.968Z,7.2
2019-02-12T03:22:04.390Z,8.6
2019-02-12T03:23:03.940Z,8.6
2019-02-12T03:24:03.196Z,7.2
2019-02-12T03:25:03.807Z,7.2
2019-02-12T03:26:03.276Z,8.6
2019-02-12T03:27:03.561Z,5
2019-02-12T03:28:03.163Z,3.6
2019-02-12T03:29:03.744Z,5
2019-02-12T03:30:03.302Z,3.6
2019-02-12T03:31:03.621Z,3.6
2019-02-12T03:32:02.910Z,3.6
2019-02-12T03:33:03.615Z,1.1
2019-02-12T03:34:03.019Z,2.5
2019-02-12T03:35:03.966Z,2.5
2019-02-12T03:36:03.206Z,3.6
2019-02-12T03:37:03.538Z,5
2019-02-12T03:38:03.060Z,5
2019-02-12T03:39:03.527Z,6.1
2019-02-12T03:40:03.270Z,5
2019-02-12T03:41:03.729Z,6.1
2019-02-12T03:42:03.151Z,5
2019-02-12T03:43:03.251Z,5
2019-02-12T03:44:02.919Z,6.1
2019-02-12T03:45:03.349Z,5
2019-02-12T03:46:03.021Z,6.1
2019-02-12T03:47:03.386Z,5
2019-02-12T03:48:03.754Z,6.1
2019-02-12T03:49:03.278Z,7.2
2019-02-12T03:50:03.764Z,7.2
2019-02-12T03:51:03.144Z,6.1
2019-02-12T03:52:13.468Z,5
2019-02-12T03:53:02.918Z,7.2
2019-02-12T03:54:03.406Z,5
2019-02-12T03:55:03.202Z,6.1
2019-02-12T03:56:03.505Z,5
2019-02-12T03:57:04.018Z,3.6
2019-02-12T03:58:03.250Z,3.6
2019-02-12T03:59:03.999Z,3.6
2019-02-12T04:00:03.152Z,5
2019-02-12T04:01:03.874Z,5
2019-02-12T04:02:03.341Z,7.2
2019-02-12T04:03:03.760Z,7.2
2019-02-12T04:04:02.928Z,6.1
2019-02-12T04:05:03.794Z,6.1
2019-02-12T04:06:03.211Z,6.1
2019-02-12T04:07:03.769Z,5
2019-02-12T04:08:03.784Z,6.1
2019-02-12T04:09:03.395Z,5
2019-02-12T04:10:03.069Z,8.6
2019-02-12T04:11:03.453Z,7.2
2019-02-12T04:12:02.988Z,6.1
2019-02-12T04:13:03.707Z,7.2
2019-02-12T04:14:03.008Z,9.7
2019-02-12T04:15:03.742Z,7.2
2019-02-12T04:16:03.091Z,8.6
2019-02-12T04:17:03.406Z,7.2
2019-02-12T04:18:03.059Z,7.2
2019-02-12T04:19:03.559Z,8.6
2019-02-12T04:20:03.339Z,9.7
2019-02-12T04:21:03.523Z,11.2
2019-02-12T04:22:02.942Z,11.2
2019-02-12T04:23:03.315Z,9.7
2019-02-12T04:24:02.955Z,8.6
2019-02-12T04:25:03.677Z,11.2
2019-02-12T04:26:03.944Z,11.2
2019-02-12T04:27:03.488Z,7.2
2019-02-12T04:28:03.791Z,7.2
2019-02-12T04:29:03.329Z,8.6
2019-02-12T04:30:03.910Z,7.2
2019-02-12T04:31:03.591Z,11.2
2019-02-12T04:32:02.962Z,9.7
2019-02-12T04:33:03.545Z,6.1
2019-02-12T04:34:03.775Z,7.2
2019-02-12T04:35:03.574Z,6.1
2019-02-12T04:36:03.071Z,7.2
2019-02-12T04:37:03.537Z,6.1
2019-02-12T04:38:03.196Z,5
2019-02-12T04:39:03.643Z,5
2019-02-12T04:40:02.757Z,5
2019-02-12T04:41:03.402Z,8.6
2019-02-12T04:42:03.874Z,6.1
2019-02-12T04:43:03.366Z,8.6
2019-02-12T04:44:03.549Z,6.1
2019-02-12T04:45:03.340Z,7.2
2019-02-12T04:46:03.911Z,9.7
2019-02-12T04:47:03.159Z,6.1
2019-02-12T04:48:03.555Z,7.2
2019-02-12T04:49:03.209Z,8.6
2019-02-12T04:50:03.003Z,6.1
2019-02-12T04:51:03.320Z,7.2
2019-02-12T04:52:03.940Z,9.7
2019-02-12T04:53:03.082Z,11.2
2019-02-12T04:54:03.850Z,8.6
2019-02-12T04:55:03.374Z,8.6
2019-02-12T04:56:04.062Z,8.6
2019-02-12T04:57:03.355Z,11.2
2019-02-12T04:58:02.841Z,8.6
2019-02-12T04:59:03.392Z,7.2
2019-02-12T05:00:03.888Z,7.2
2019-02-12T05:01:03.175Z,5
2019-02-12T05:02:04.240Z,5
2019-02-12T05:03:03.252Z,5
2019-02-12T05:04:02.913Z,5
2019-02-12T05:05:03.257Z,5
2019-02-12T05:06:03.791Z,5
2019-02-12T05:07:03.348Z,5
2019-02-12T05:08:03.959Z,5
2019-02-12T05:09:03.500Z,5
2019-02-12T05:10:04.065Z,5
2019-02-12T05:11:03.575Z,8.6
2019-02-12T05:12:03.846Z,8.6
2019-02-12T05:13:03.235Z,6.1
2019-02-12T05:14:03.778Z,9.7
2019-02-12T05:15:03.231Z,11.2
2019-02-12T05:16:02.919Z,9.7
2019-02-12T05:17:03.038Z,9.7
2019-02-12T05:18:03.425Z,11.2
2019-02-12T05:19:02.744Z,8.6
2019-02-12T05:20:03.450Z,13.3
2019-02-12T05:21:02.957Z,11.2
2019-02-12T05:22:03.616Z,13.3
2019-02-12T05:23:03.027Z,12.2
2019-02-12T05:24:03.483Z,14.8
2019-02-12T05:25:03.068Z,14.8
2019-02-12T05:26:03.821Z,15.8
2019-02-12T05:27:02.814Z,18.4
2019-02-12T05:28:03.338Z,13.3
2019-02-12T05:29:02.886Z,13.3
2019-02-12T05:30:03.114Z,19.4
2019-02-12T05:31:03.622Z,18.4
2019-02-12T05:32:03.088Z,13.3
2019-02-12T05:33:03.677Z,11.2
2019-02-12T05:34:03.143Z,17.3
2019-02-12T05:35:03.786Z,13.3
2019-02-12T05:36:03.148Z,14.8
2019-02-12T05:37:03.564Z,14.8
2019-02-12T05:38:02.908Z,19.4
2019-02-12T05:39:03.296Z,15.8
2019-02-12T05:40:03.165Z,19.4
2019-02-12T05:41:03.945Z,17.3
2019-02-12T05:42:03.375Z,18.4
2019-02-12T05:43:03.531Z,17.3
2019-02-12T05:44:03.196Z,14.8
2019-02-12T05:45:03.500Z,12.2
2019-02-12T05:46:03.656Z,17.3
2019-02-12T05:47:03.447Z,13.3
2019-02-12T05:48:03.078Z,11.2
2019-02-12T05:49:03.263Z,15.8
2019-02-12T05:50:03.909Z,18.4
2019-02-12T05:51:03.153Z,13.3
2019-02-12T05:52:03.754Z,11.2
2019-02-12T05:53:03.403Z,12.2
2019-02-12T05:54:03.085Z,12.2
2019-02-12T05:55:03.164Z,12.2
2019-02-12T05:56:03.657Z,12.2
2019-02-12T05:57:03.820Z,13.3
2019-02-12T05:58:03.431Z,11.2
2019-02-12T05:59:04.038Z,12.2
2019-02-12T06:00:03.573Z,13.3
2019-02-12T06:01:03.889Z,13.3
2019-02-12T06:02:03.381Z,9.7
2019-02-12T06:03:03.851Z,11.2
2019-02-12T06:04:03.419Z,17.3
2019-02-12T06:05:03.898Z,14.8
2019-02-12T06:06:03.029Z,15.8
2019-02-12T06:07:03.858Z,13.3
2019-02-12T06:08:03.491Z,14.8
2019-02-12T06:09:03.555Z,14.8
2019-02-12T06:10:03.207Z,13.3
2019-02-12T06:11:03.538Z,11.2
2019-02-12T06:12:03.350Z,17.3
2019-02-12T06:13:03.634Z,15.8
2019-02-12T06:14:03.051Z,13.3
2019-02-12T06:15:03.708Z,14.8
2019-02-12T06:16:03.269Z,11.2
2019-02-12T06:17:03.539Z,14.8
2019-02-12T06:18:04.075Z,13.3
2019-02-12T06:19:03.602Z,12.2
2019-02-12T06:20:03.123Z,13.3
2019-02-12T06:21:03.326Z,13.3
2019-02-12T06:22:03.515Z,13.3
2019-02-12T06:23:04.639Z,14.8
2019-02-12T06:24:03.575Z,12.2
2019-02-12T06:25:03.535Z,11.2
2019-02-12T06:26:03.919Z,15.8
2019-02-12T06:27:03.181Z,13.3
2019-02-12T06:28:03.937Z,20.9
2019-02-12T06:29:03.714Z,15.8
2019-02-12T06:30:03.286Z,13.3
2019-02-12T06:31:03.180Z,12.2
2019-02-12T06:32:03.758Z,20.9
2019-02-12T06:33:08.214Z,14.8
2019-02-12T06:34:03.725Z,13.3
2019-02-12T06:35:03.167Z,13.3
2019-02-12T06:36:03.820Z,17.3
2019-02-12T06:37:03.167Z,15.8
2019-02-12T06:38:03.942Z,15.8
2019-02-12T06:39:03.225Z,18.4
2019-02-12T06:40:03.793Z,17.3
2019-02-12T06:41:03.010Z,13.3
2019-02-12T06:42:03.682Z,12.2
2019-02-12T06:43:03.314Z,11.2
2019-02-12T06:44:03.836Z,11.2
2019-02-12T06:45:03.847Z,18.4
2019-02-12T06:46:03.226Z,13.3
2019-02-12T06:47:03.829Z,12.2
2019-02-12T06:48:03.318Z,12.2
2019-02-12T06:49:03.661Z,13.3
2019-02-12T06:50:02.974Z,17.3
2019-02-12T06:51:03.566Z,17.3
2019-02-12T06:52:02.826Z,19.4
2019-02-12T06:53:13.168Z,18.4
2019-02-12T06:54:02.870Z,13.3
2019-02-12T06:55:03.356Z,13.3
2019-02-12T06:56:02.716Z,13.3
2019-02-12T06:57:03.305Z,14.8
2019-02-12T06:58:03.776Z,13.3
2019-02-12T06:59:03.867Z,15.8
2019-02-12T07:00:03.183Z,18.4
2019-02-12T07:01:03.172Z,14.8
2019-02-12T07:02:03.683Z,14.8
2019-02-12T07:03:03.298Z,14.8
2019-02-12T07:04:03.561Z,14.8
2019-02-12T07:05:03.863Z,14.8
2019-02-12T07:06:03.335Z,14.8
2019-02-12T07:07:02.941Z,14.8
2019-02-12T07:08:03.420Z,14.8
2019-02-12T07:09:03.084Z,14.8
2019-02-12T07:10:03.312Z,11.2
2019-02-12T07:11:02.928Z,13.3
2019-02-12T07:12:03.121Z,13.3
2019-02-12T07:13:03.913Z,13.3
2019-02-12T07:14:03.322Z,13.3
2019-02-12T07:15:03.917Z,11.2
2019-02-12T07:16:03.397Z,11.2
2019-02-12T07:17:03.536Z,12.2
2019-02-12T07:18:03.084Z,11.2
2019-02-12T07:19:03.704Z,13.3
2019-02-12T07:20:03.305Z,13.3
2019-02-12T07:21:03.989Z,11.2
2019-02-12T07:22:03.382Z,11.2
2019-02-12T07:23:03.775Z,12.2
2019-02-12T07:24:03.005Z,11.2
2019-02-12T07:25:03.487Z,9.7
2019-02-12T07:26:02.951Z,9.7
2019-02-12T07:27:03.614Z,13.3
2019-02-12T07:28:03.181Z,14.8
2019-02-12T07:29:03.827Z,13.3
2019-02-12T07:30:03.952Z,13.3
2019-02-12T07:31:03.308Z,12.2
2019-02-12T07:32:03.236Z,14.8
2019-02-12T07:33:03.492Z,17.3
2019-02-12T07:34:03.075Z,14.8
2019-02-12T07:35:03.861Z,11.2
2019-02-12T07:36:04.067Z,12.2
2019-02-12T07:37:03.361Z,13.3
2019-02-12T07:38:03.925Z,14.8
2019-02-12T07:39:03.438Z,14.8
2019-02-12T07:40:03.889Z,13.3
2019-02-12T07:41:03.554Z,8.6
2019-02-12T07:42:03.732Z,13.3
2019-02-12T07:43:03.136Z,13.3
2019-02-12T07:44:03.575Z,13.3
2019-02-12T07:45:03.398Z,15.8
2019-02-12T07:46:03.463Z,12.2
2019-02-12T07:47:03.366Z,12.2
2019-02-12T07:48:03.699Z,13.3
2019-02-12T07:49:03.017Z,13.3
2019-02-12T07:50:03.863Z,12.2
2019-02-12T07:51:03.224Z,15.8
2019-02-12T07:52:03.677Z,15.8
2019-02-12T07:53:03.542Z,12.2
2019-02-12T07:54:03.837Z,14.8
2019-02-12T07:55:03.363Z,12.2
2019-02-12T07:56:03.674Z,11.2
2019-02-12T07:57:03.248Z,11.2
2019-02-12T07:58:03.747Z,13.3
2019-02-12T07:59:03.530Z,14.8
2019-02-12T08:00:03.136Z,14.8
2019-02-12T08:01:03.391Z,12.2
2019-02-12T08:02:03.758Z,13.3
2019-02-12T08:03:03.339Z,12.2
2019-02-12T08:04:03.836Z,12.2
2019-02-12T08:05:03.685Z,12.2
2019-02-12T08:06:03.734Z,14.8
2019-02-12T08:07:02.942Z,17.3
2019-02-12T08:08:03.460Z,15.8
2019-02-12T08:09:03.994Z,14.8
2019-02-12T08:10:03.390Z,13.3
2019-02-12T08:11:03.085Z,12.2
2019-02-12T08:12:03.301Z,11.2
2019-02-12T08:13:03.992Z,18.4
2019-02-12T08:14:03.270Z,18.4
2019-02-12T08:15:03.804Z,17.3
2019-02-12T08:16:03.181Z,17.3
2019-02-12T08:17:03.702Z,15.8
2019-02-12T08:18:02.989Z,17.3
2019-02-12T08:19:03.745Z,15.8
2019-02-12T08:20:03.033Z,18.4
2019-02-12T08:21:03.633Z,15.8
2019-02-12T08:22:02.915Z,14.8
2019-02-12T08:23:03.863Z,17.3
2019-02-12T08:24:03.200Z,17.3
2019-02-12T08:25:03.793Z,14.8
2019-02-12T08:26:03.194Z,13.3
2019-02-12T08:27:03.499Z,12.2
2019-02-12T08:28:03.821Z,12.2
2019-02-12T08:29:03.476Z,14.8
2019-02-12T08:30:02.727Z,12.2
2019-02-12T08:31:03.447Z,9.7
2019-02-12T08:32:03.174Z,13.3
2019-02-12T08:33:03.438Z,12.2
2019-02-12T08:34:03.898Z,11.2
2019-02-12T08:35:03.747Z,11.2
2019-02-12T08:36:03.810Z,11.2
2019-02-12T08:37:03.828Z,11.2
2019-02-12T08:38:03.647Z,12.2
2019-02-12T08:39:03.379Z,13.3
2019-02-12T08:40:03.192Z,13.3
2019-02-12T08:41:03.955Z,14.8
2019-02-12T08:42:03.828Z,15.8
2019-02-12T08:43:03.545Z,12.2
2019-02-12T08:44:03.797Z,12.2
2019-02-12T08:45:03.452Z,13.3
2019-02-12T08:46:03.991Z,19.4
2019-02-12T08:47:03.523Z,14.8
2019-02-12T08:48:02.958Z,14.8
2019-02-12T08:49:03.611Z,13.3
2019-02-12T08:50:03.633Z,14.8
2019-02-12T08:51:03.523Z,14.8
2019-02-12T08:52:03.721Z,15.8
2019-02-12T08:53:03.444Z,18.4
2019-02-12T08:54:03.855Z,17.3
2019-02-12T08:55:03.638Z,14.8
2019-02-12T08:56:03.690Z,13.3
2019-02-12T08:57:03.125Z,14.8
2019-02-12T08:58:03.767Z,19.4
2019-02-12T08:59:02.906Z,19.4
2019-02-12T09:00:03.957Z,13.3
2019-02-12T09:01:03.104Z,14.8
2019-02-12T09:02:03.756Z,14.8
2019-02-12T09:03:03.044Z,14.8
2019-02-12T09:04:03.419Z,14.8
2019-02-12T09:05:03.749Z,14.8
2019-02-12T09:06:04.457Z,14.8
2019-02-12T09:07:03.906Z,14.8
2019-02-12T09:08:03.606Z,14.8
2019-02-12T09:09:03.811Z,20.9
2019-02-12T09:10:04.087Z,18.4
2019-02-12T09:11:03.854Z,17.3
2019-02-12T09:12:03.758Z,17.3
2019-02-12T09:13:03.567Z,15.8
2019-02-12T09:14:03.170Z,17.3
2019-02-12T09:15:03.522Z,18.4
2019-02-12T09:16:03.360Z,18.4
2019-02-12T09:17:03.160Z,14.8
2019-02-12T09:18:03.673Z,14.8
2019-02-12T09:19:03.354Z,17.3
2019-02-12T09:20:03.686Z,15.8
2019-02-12T09:21:03.665Z,12.2
2019-02-12T09:22:03.521Z,15.8
2019-02-12T09:23:03.945Z,17.3
2019-02-12T09:24:04.009Z,14.8
2019-02-12T09:25:03.959Z,15.8
2019-02-12T09:26:03.553Z,15.8
2019-02-12T09:27:03.497Z,17.3
2019-02-12T09:28:03.682Z,13.3
2019-02-12T09:29:03.335Z,13.3
2019-02-12T09:30:06.728Z,18.4
2019-02-12T09:31:03.797Z,18.4
2019-02-12T09:32:03.527Z,14.8
2019-02-12T09:33:03.804Z,12.2
2019-02-12T09:34:03.269Z,13.3
2019-02-12T09:35:03.678Z,14.8
2019-02-12T09:36:04.066Z,19.4
2019-02-12T09:37:03.654Z,14.8
2019-02-12T09:38:03.551Z,12.2
2019-02-12T09:39:02.889Z,12.2
2019-02-12T09:40:03.913Z,12.2
2019-02-12T09:41:03.163Z,11.2
2019-02-12T09:42:03.869Z,12.2
2019-02-12T09:43:03.500Z,13.3
2019-02-12T09:44:02.986Z,19.4
2019-02-12T09:45:03.546Z,18.4
2019-02-12T09:46:02.750Z,22
2019-02-12T09:47:03.565Z,20.9
2019-02-12T09:48:03.916Z,17.3
2019-02-12T09:49:02.994Z,14.8
2019-02-12T09:50:03.584Z,15.8
2019-02-12T09:51:02.824Z,17.3
2019-02-12T09:52:03.667Z,15.8
2019-02-12T09:53:02.951Z,18.4
2019-02-12T09:54:09.329Z,18.4
2019-02-12T09:55:03.117Z,20.9
2019-02-12T09:56:03.542Z,20.9
2019-02-12T09:57:03.081Z,22
2019-02-12T09:58:03.404Z,17.3
2019-02-12T09:59:03.523Z,22
2019-02-12T10:00:03.807Z,20.9
2019-02-12T10:01:03.020Z,19.4
2019-02-12T10:02:03.501Z,24.5
2019-02-12T10:03:02.901Z,20.9
2019-02-12T10:04:03.595Z,17.3
2019-02-12T10:05:03.445Z,27
2019-02-12T10:06:03.784Z,20.9
2019-02-12T10:07:03.344Z,19.4
2019-02-12T10:08:03.702Z,22
2019-02-12T10:09:03.497Z,23.4
2019-02-12T10:10:03.754Z,18.4
2019-02-12T10:11:03.446Z,20.9
2019-02-12T10:12:03.557Z,20.9
2019-02-12T10:13:03.227Z,18.4
2019-02-12T10:14:03.726Z,20.9
2019-02-12T10:15:03.123Z,19.4
2019-02-12T10:16:03.407Z,18.4
2019-02-12T10:17:03.015Z,23.4
2019-02-12T10:18:03.690Z,19.4
2019-02-12T10:19:03.217Z,22
2019-02-12T10:20:03.526Z,18.4
2019-02-12T10:21:03.838Z,22
2019-02-12T10:22:02.910Z,18.4
2019-02-12T10:23:03.670Z,19.4
2019-02-12T10:24:02.941Z,15.8
2019-02-12T10:25:03.612Z,15.8
2019-02-12T10:26:03.216Z,19.4
2019-02-12T10:27:03.627Z,20.9
2019-02-12T10:28:02.901Z,20.9
2019-02-12T10:29:03.358Z,19.4
2019-02-12T10:30:03.129Z,19.4
2019-02-12T10:31:03.691Z,25.6
2019-02-12T10:32:09.344Z,25.6
2019-02-12T10:33:03.147Z,19.4
2019-02-12T10:34:02.971Z,22
2019-02-12T10:35:03.382Z,20.9
2019-02-12T10:36:04.445Z,17.3
2019-02-12T10:37:03.396Z,22
2019-02-12T10:38:02.972Z,28.1
2019-02-12T10:39:03.009Z,22
2019-02-12T10:40:03.706Z,22
2019-02-12T10:41:03.055Z,24.5
2019-02-12T10:42:03.521Z,20.9
2019-02-12T10:43:02.851Z,19.4
2019-02-12T10:44:03.547Z,27
2019-02-12T10:45:03.087Z,19.4
2019-02-12T10:46:03.671Z,25.6
2019-02-12T10:47:03.157Z,28.1
2019-02-12T10:48:03.330Z,24.5
2019-02-12T10:49:03.013Z,19.4
2019-02-12T10:50:03.595Z,19.4
2019-02-12T10:51:02.869Z,22
2019-02-12T10:52:03.135Z,23.4
2019-02-12T10:53:03.433Z,18.4
2019-02-12T10:54:03.844Z,17.3
2019-02-12T10:55:03.541Z,25.6
2019-02-12T10:56:04.953Z,22
2019-02-12T10:57:03.640Z,22
2019-02-12T10:58:03.109Z,22
2019-02-12T10:59:03.483Z,24.5
2019-02-12T11:00:02.975Z,18.4
2019-02-12T11:01:03.211Z,14.8
2019-02-12T11:02:03.890Z,14.8
2019-02-12T11:03:03.213Z,14.8
2019-02-12T11:04:02.986Z,14.8
2019-02-12T11:05:03.294Z,14.8
2019-02-12T11:06:03.576Z,14.8
2019-02-12T11:07:03.256Z,14.8
2019-02-12T11:08:03.621Z,14.8
2019-02-12T11:09:03.088Z,14.8
2019-02-12T11:10:03.683Z,19.4
2019-02-12T11:11:03.135Z,19.4
2019-02-12T11:12:03.593Z,18.4
2019-02-12T11:13:03.336Z,14.8
2019-02-12T11:14:03.667Z,18.4
2019-02-12T11:15:03.864Z,20.9
2019-02-12T11:16:03.561Z,15.8
2019-02-12T11:17:03.105Z,14.8
2019-02-12T11:18:03.138Z,15.8
2019-02-12T11:19:03.052Z,17.3
2019-02-12T11:20:03.675Z,17.3
2019-02-12T11:21:12.731Z,17.3
2019-02-12T11:22:03.053Z,14.8
2019-02-12T11:23:03.821Z,18.4
2019-02-12T11:24:03.323Z,17.3
2019-02-12T11:25:03.950Z,17.3
2019-02-12T11:26:03.777Z,13.3
2019-02-12T11:27:02.797Z,14.8
2019-02-12T11:28:02.698Z,14.8
2019-02-12T11:29:03.072Z,14.8
2019-02-12T11:30:03.434Z,22
2019-02-12T11:31:03.748Z,20.9
2019-02-12T11:32:03.008Z,20.9
2019-02-12T11:33:03.697Z,18.4
2019-02-12T11:34:03.867Z,19.4
2019-02-12T11:35:03.259Z,12.2
2019-02-12T11:36:03.570Z,12.2
2019-02-12T11:37:03.079Z,13.3
2019-02-12T11:38:04.029Z,13.3
2019-02-12T11:39:03.190Z,15.8
2019-02-12T11:40:02.905Z,18.4
2019-02-12T11:41:03.325Z,19.4
2019-02-12T11:42:03.844Z,18.4
2019-02-12T11:43:03.146Z,15.8
2019-02-12T11:44:03.688Z,20.9
2019-02-12T11:45:03.435Z,18.4
2019-02-12T11:46:04.225Z,17.3
2019-02-12T11:47:02.949Z,13.3
2019-02-12T11:48:03.243Z,18.4
2019-02-12T11:49:03.632Z,18.4
2019-02-12T11:50:03.313Z,20.9
2019-02-12T11:51:03.000Z,20.9
2019-02-12T11:52:03.229Z,19.4
2019-02-12T11:53:02.957Z,17.3
2019-02-12T11:54:03.027Z,20.9
2019-02-12T11:55:03.779Z,17.3
2019-02-12T11:56:03.176Z,18.4
2019-02-12T11:57:02.976Z,12.2
2019-02-12T11:58:03.064Z,14.8
2019-02-12T11:59:03.651Z,20.9
2019-02-12T12:00:03.404Z,20.9
2019-02-12T12:01:03.613Z,14.8
2019-02-12T12:02:02.916Z,14.8
2019-02-12T12:03:03.371Z,14.8
2019-02-12T12:04:03.228Z,18.4
2019-02-12T12:05:03.637Z,14.8
2019-02-12T12:06:02.050Z,15.8
2019-02-12T12:07:03.669Z,20.9
2019-02-12T12:08:02.915Z,19.4
2019-02-12T12:09:03.562Z,19.4
2019-02-12T12:10:04.017Z,19.4
2019-02-12T12:11:03.504Z,24.5
2019-02-12T12:12:03.060Z,29.5
2019-02-12T12:13:03.454Z,25.6
2019-02-12T12:14:02.742Z,22
2019-02-12T12:15:03.355Z,18.4
2019-02-12T12:16:03.784Z,19.4
2019-02-12T12:17:03.442Z,24.5
2019-02-12T12:18:03.424Z,24.5
2019-02-12T12:19:03.206Z,20.9
2019-02-12T12:20:03.697Z,17.3
2019-02-12T12:21:03.067Z,17.3
2019-02-12T12:22:03.756Z,17.3
2019-02-12T12:23:02.978Z,14.8
2019-02-12T12:24:03.605Z,15.8
2019-02-12T12:25:02.975Z,12.2
2019-02-12T12:26:03.487Z,14.8
2019-02-12T12:27:02.850Z,14.8
2019-02-12T12:28:03.283Z,14.8
2019-02-12T12:29:02.989Z,17.3
2019-02-12T12:30:03.898Z,24.5
2019-02-12T12:31:03.045Z,23.4
2019-02-12T12:32:03.395Z,22
2019-02-12T12:33:03.275Z,19.4
2019-02-12T12:34:03.907Z,23.4
2019-02-12T12:35:03.012Z,19.4
2019-02-12T12:36:03.870Z,19.4
2019-02-12T12:37:03.111Z,20.9
2019-02-12T12:38:03.703Z,22
2019-02-12T12:39:02.882Z,15.8
2019-02-12T12:40:03.629Z,18.4
2019-02-12T12:41:03.071Z,19.4
2019-02-12T12:42:03.312Z,22
2019-02-12T12:43:03.241Z,25.6
2019-02-12T12:44:03.869Z,20.9
2019-02-12T12:45:03.089Z,17.3
2019-02-12T12:46:03.394Z,12.2
2019-02-12T12:47:03.878Z,13.3
2019-02-12T12:48:03.173Z,17.3
2019-02-12T12:49:03.544Z,19.4
2019-02-12T12:50:03.811Z,14.8
2019-02-12T12:51:02.974Z,15.8
2019-02-12T12:52:03.836Z,22
2019-02-12T12:53:03.102Z,25.6
2019-02-12T12:54:03.540Z,25.6
2019-02-12T12:55:03.635Z,19.4
2019-02-12T12:56:03.635Z,23.4
2019-02-12T12:57:04.142Z,19.4
2019-02-12T12:58:03.521Z,18.4
2019-02-12T12:59:03.393Z,20.9
2019-02-12T13:00:03.459Z,23.4
2019-02-12T13:01:03.940Z,24.5
2019-02-12T13:02:03.015Z,24.5
2019-02-12T13:03:04.361Z,24.5
2019-02-12T13:04:03.289Z,24.5
2019-02-12T13:05:03.910Z,24.5
2019-02-12T13:06:03.367Z,24.5
2019-02-12T13:07:03.286Z,24.5
2019-02-12T13:08:03.419Z,24.5
2019-02-12T13:09:03.106Z,18.4
2019-02-12T13:10:02.934Z,14.8
2019-02-12T13:11:03.192Z,20.9
2019-02-12T13:12:03.567Z,14.8
2019-02-12T13:13:05.091Z,20.9
2019-02-12T13:14:03.622Z,14.8
2019-02-12T13:15:03.517Z,14.8
2019-02-12T13:16:03.662Z,18.4
2019-02-12T13:17:03.232Z,18.4
2019-02-12T13:18:03.491Z,17.3
2019-02-12T13:19:03.338Z,17.3
2019-02-12T13:20:03.555Z,15.8
2019-02-12T13:21:03.786Z,15.8
2019-02-12T13:22:03.586Z,13.3
2019-02-12T13:23:03.009Z,15.8
2019-02-12T13:24:03.580Z,23.4
2019-02-12T13:25:09.209Z,20.9
2019-02-12T13:26:03.366Z,15.8
2019-02-12T13:27:03.451Z,17.3
2019-02-12T13:28:03.904Z,15.8
2019-02-12T13:29:03.129Z,14.8